Terminal Aerodrome Forecast
Issued by NWS Mt. Holly, NJ

Home | Current Version | Previous Version | Text Only | Print | Product List | Glossary On
Versions: 1 2 3 4 5 6 7 8 9 10 11 12 13 14 15 16 17 18 19 20 21 22 23 24 25 26 27 28 29 30 31 32 33 34 35 36 37 38
066
FTAK31 PANC 102339
TAFABE
TAF
PABE 102339Z 1100/1124 02012KT P6SM BKN150
     FM110300 07008KT P6SM SCT050
     FM110600 06006KT P6SM VCFG SCT003 BKN010
     FM111900 06006KT P6SM SCT035=

USA.gov is the U.S. government's official web portal to all federal, state and local government web resources and services.